Time;durP1;ratioP1;P1;durP2;ratioP2;P2;SDS_P1;SDS_P2;PMS_P1;PMS_P2;Temp;Humidity;BMP_temperature;BMP_pressure;BME280_temperature;BME280_humidity;BME280_pressure;Samples;Min_cycle;Max_cycle;Signal;HPM_P1;HPM_P2
2022/06/25 00:02:17;;;;;;;0.60;0.60;;;15.70;99.90;;;;;;5068056;28;20616;-83
2022/06/25 00:07:29;;;;;;;1.27;1.17;;;15.60;99.90;;;;;;5067906;28;20608;-83
2022/06/25 00:09:57;;;;;;;1.30;1.20;;;15.60;99.90;;;;;;5067817;28;20609;-83
2022/06/25 00:12:32;;;;;;;1.50;1.10;;;15.50;99.90;;;;;;5067787;28;20601;-82
2022/06/25 00:15:01;;;;;;;1.20;1.10;;;15.40;99.90;;;;;;5068078;28;20609;-82
2022/06/25 00:17:28;;;;;;;0.73;0.70;;;15.40;99.90;;;;;;5067907;28;20706;-82
2022/06/25 00:19:56;;;;;;;1.50;1.40;;;15.40;99.90;;;;;;5067836;28;20616;-82
2022/06/25 00:22:23;;;;;;;1.20;1.07;;;15.50;99.90;;;;;;5067836;28;20682;-83
2022/06/25 00:24:51;;;;;;;1.53;1.43;;;15.50;99.90;;;;;;5067709;28;21346;-82
2022/06/25 00:27:19;;;;;;;0.90;0.90;;;15.50;99.90;;;;;;5067467;28;21194;-83
2022/06/25 00:29:47;;;;;;;1.20;1.17;;;15.40;99.90;;;;;;5067985;28;20609;-82
2022/06/25 00:32:14;;;;;;;0.83;0.83;;;15.40;99.90;;;;;;5067675;28;20973;-83
2022/06/25 00:34:43;;;;;;;1.50;1.40;;;15.30;99.90;;;;;;5067793;28;20659;-82
2022/06/25 00:37:11;;;;;;;1.50;1.23;;;15.40;99.90;;;;;;5067322;28;20617;-82
2022/06/25 00:39:38;;;;;;;1.00;0.90;;;15.20;99.90;;;;;;5067956;28;20648;-82
2022/06/25 00:42:09;;;;;;;2.10;1.70;;;15.20;99.90;;;;;;5067554;28;20613;-83
2022/06/25 00:44:38;;;;;;;1.57;1.47;;;15.20;99.90;;;;;;5067767;28;20686;-83
2022/06/25 00:47:10;;;;;;;1.07;0.73;;;15.20;99.90;;;;;;5067532;28;20744;-83
2022/06/25 00:49:39;;;;;;;0.80;0.80;;;15.20;99.90;;;;;;5067444;28;20601;-83
2022/06/25 00:52:11;;;;;;;1.37;1.23;;;15.20;99.90;;;;;;5067718;28;20613;-82
2022/06/25 00:54:39;;;;;;;1.30;1.20;;;15.20;99.90;;;;;;5067594;28;20605;-82
2022/06/25 00:57:09;;;;;;;0.97;0.87;;;15.10;99.90;;;;;;5067353;28;20609;-83
2022/06/25 00:59:39;;;;;;;0.77;0.77;;;15.10;99.90;;;;;;5067636;28;20589;-82
2022/06/25 01:02:08;;;;;;;1.50;1.20;;;15.10;99.90;;;;;;5067013;28;21048;-83
2022/06/25 01:04:36;;;;;;;0.80;0.80;;;15.10;99.90;;;;;;5067496;28;20643;-82
2022/06/25 01:07:04;;;;;;;1.43;1.33;;;15.10;99.90;;;;;;5065811;28;20633;-83
2022/06/25 01:09:31;;;;;;;1.20;1.10;;;15.20;99.90;;;;;;5067256;28;20624;-82
2022/06/25 01:11:58;;;;;;;1.40;1.30;;;15.20;99.90;;;;;;5067341;28;20751;-83
2022/06/25 01:14:25;;;;;;;0.87;0.87;;;15.20;99.90;;;;;;5067006;28;21485;-82
2022/06/25 01:16:53;;;;;;;2.00;1.50;;;15.10;99.90;;;;;;5069108;28;20704;-83
2022/06/25 01:19:22;;;;;;;1.37;1.03;;;15.10;99.90;;;;;;5070984;28;20615;-83
2022/06/25 01:21:50;;;;;;;0.80;0.80;;;15.10;99.90;;;;;;5070652;28;20609;-83
2022/06/25 01:24:19;;;;;;;1.30;1.20;;;15.00;99.90;;;;;;5070629;28;20609;-82
2022/06/25 01:26:46;;;;;;;1.10;1.10;;;15.00;99.90;;;;;;5070406;28;20637;-82
2022/06/25 01:29:13;;;;;;;0.77;0.77;;;15.00;99.90;;;;;;5070661;28;20628;-83
2022/06/25 01:31:42;;;;;;;0.97;0.87;;;15.10;99.90;;;;;;5070741;28;20629;-82
2022/06/25 01:34:12;;;;;;;1.00;0.70;;;15.10;99.90;;;;;;5062793;28;20613;-83
2022/06/25 01:36:40;;;;;;;1.23;1.13;;;15.10;99.90;;;;;;5070335;28;20640;-82
2022/06/25 01:39:08;;;;;;;1.07;1.07;;;15.20;99.90;;;;;;5068428;28;20686;-82
2022/06/25 01:41:37;;;;;;;1.20;1.10;;;15.20;99.90;;;;;;5070192;28;20958;-82
2022/06/25 01:44:05;;;;;;;1.20;1.10;;;15.10;99.90;;;;;;5070473;28;20605;-82
2022/06/25 01:46:33;;;;;;;0.83;0.80;;;15.10;99.90;;;;;;5070089;28;20647;-83
2022/06/25 01:49:00;;;;;;;1.20;1.10;;;15.10;99.90;;;;;;5070624;28;20724;-82
2022/06/25 01:51:29;;;;;;;1.20;0.83;;;15.10;99.90;;;;;;5070051;28;20613;-83
2022/06/25 01:53:56;;;;;;;0.93;0.93;;;15.10;99.90;;;;;;5070282;28;20693;-82
2022/06/25 01:56:25;;;;;;;1.37;1.27;;;15.10;99.90;;;;;;5069894;28;20609;-83
2022/06/25 01:58:53;;;;;;;1.30;1.20;;;15.10;99.90;;;;;;5070265;28;20605;-82
2022/06/25 02:01:20;;;;;;;1.20;1.10;;;15.20;99.90;;;;;;5070250;28;20619;-83
2022/06/25 02:03:47;;;;;;;0.80;0.80;;;15.10;99.90;;;;;;5070161;28;20613;-83
2022/06/25 02:06:14;;;;;;;0.90;0.90;;;15.10;99.90;;;;;;5069772;28;20690;-83
2022/06/25 02:08:42;;;;;;;1.30;1.17;;;15.10;99.90;;;;;;5069643;28;20609;-82
2022/06/25 02:11:11;;;;;;;2.10;1.20;;;15.00;99.90;;;;;;5061581;28;20728;-83
2022/06/25 02:13:38;;;;;;;1.60;1.50;;;15.10;99.90;;;;;;5070225;28;20609;-83
2022/06/25 02:16:07;;;;;;;1.90;1.13;;;15.10;99.90;;;;;;5069574;28;20606;-82
2022/06/25 02:18:34;;;;;;;2.07;1.60;;;15.00;99.90;;;;;;5069631;28;20640;-82
2022/06/25 02:21:01;;;;;;;2.30;1.30;;;15.00;99.90;;;;;;5069410;28;20793;-82
2022/06/25 02:23:28;;;;;;;1.00;1.00;;;15.00;99.90;;;;;;5069689;28;21143;-82
2022/06/25 02:25:55;;;;;;;1.00;0.87;;;15.00;99.90;;;;;;5069494;28;21040;-82
2022/06/25 02:28:22;;;;;;;1.30;1.20;;;15.00;99.90;;;;;;5068734;28;20632;-83
2022/06/25 02:30:49;;;;;;;1.00;1.00;;;15.00;99.90;;;;;;5069568;28;20628;-83
2022/06/25 02:33:17;;;;;;;0.87;0.83;;;14.90;99.90;;;;;;5069666;28;20697;-82
2022/06/25 02:35:45;;;;;;;1.10;1.10;;;14.90;99.90;;;;;;5068819;28;20629;-83
2022/06/25 02:38:13;;;;;;;0.90;0.90;;;14.90;99.90;;;;;;5069462;28;20678;-82
2022/06/25 02:40:40;;;;;;;1.27;1.17;;;15.00;99.90;;;;;;5067288;28;20706;-82
2022/06/25 02:43:07;;;;;;;1.57;1.47;;;14.80;99.90;;;;;;5069454;28;20645;-82
2022/06/25 02:45:34;;;;;;;1.33;1.23;;;14.90;99.90;;;;;;5069085;28;20711;-83
2022/06/25 02:48:01;;;;;;;1.00;1.00;;;15.00;99.90;;;;;;5069332;28;20724;-82
2022/06/25 02:50:30;;;;;;;1.33;1.00;;;15.00;99.90;;;;;;5068880;28;20717;-82
2022/06/25 02:52:57;;;;;;;1.10;1.00;;;15.00;99.90;;;;;;5069049;28;20645;-83
2022/06/25 02:58:54;;;;;;;1.53;1.43;;;14.90;99.90;;;;;;5069144;28;20724;-84
2022/06/25 03:01:05;;;;;;;1.47;1.20;;;14.90;99.90;;;;;;5032104;28;20681;-83
2022/06/25 03:03:32;;;;;;;1.03;1.03;;;14.80;99.90;;;;;;5069197;28;20652;-83
2022/06/25 03:06:00;;;;;;;1.23;1.13;;;14.80;99.90;;;;;;5068434;28;20641;-83
2022/06/25 03:08:27;;;;;;;1.63;1.53;;;14.90;99.90;;;;;;5068995;28;20724;-83
2022/06/25 03:10:54;;;;;;;1.73;1.33;;;14.90;99.90;;;;;;5068635;28;20664;-84
2022/06/25 03:13:21;;;;;;;1.40;1.30;;;14.90;99.90;;;;;;5068269;28;21331;-83
2022/06/25 03:15:48;;;;;;;1.70;1.47;;;14.90;99.90;;;;;;5068783;28;20629;-84
2022/06/25 03:18:15;;;;;;;1.10;1.00;;;14.80;99.90;;;;;;5068786;28;20609;-84
2022/06/25 03:20:42;;;;;;;1.50;1.27;;;14.80;99.90;;;;;;5068569;28;21210;-84
2022/06/25 03:23:10;;;;;;;1.57;1.47;;;14.90;99.90;;;;;;5060539;28;20710;-83
2022/06/25 03:25:37;;;;;;;1.40;1.30;;;14.80;99.90;;;;;;5068481;28;20613;-83
2022/06/25 03:28:04;;;;;;;1.43;1.33;;;14.80;99.90;;;;;;5068305;28;20748;-83
2022/06/25 03:30:31;;;;;;;1.97;1.53;;;14.80;99.90;;;;;;5068808;28;20712;-83
2022/06/25 03:32:58;;;;;;;1.30;1.20;;;14.70;99.90;;;;;;5068761;28;20712;-83
2022/06/25 03:35:25;;;;;;;1.13;1.13;;;14.70;99.90;;;;;;5068795;28;20619;-83
2022/06/25 03:37:51;;;;;;;1.57;1.47;;;14.60;99.90;;;;;;5068328;28;20627;-83
2022/06/25 03:40:21;;;;;;;1.67;1.57;;;14.60;99.90;;;;;;5067957;28;20640;-83
2022/06/25 03:42:48;;;;;;;1.57;1.47;;;14.50;99.90;;;;;;5068460;28;20674;-84
2022/06/25 03:45:15;;;;;;;1.50;1.00;;;14.60;99.90;;;;;;5068430;28;20667;-83
2022/06/25 03:47:43;;;;;;;1.20;1.10;;;14.60;99.90;;;;;;5068520;28;20657;-83
2022/06/25 03:50:10;;;;;;;1.23;1.13;;;14.60;99.90;;;;;;5068595;28;20645;-83
2022/06/25 03:52:37;;;;;;;1.37;1.27;;;14.70;99.90;;;;;;5068419;28;20702;-83
2022/06/25 03:55:04;;;;;;;1.50;1.40;;;14.60;99.90;;;;;;5068033;28;20640;-83
2022/06/25 03:57:35;;;;;;;1.10;1.10;;;14.70;99.90;;;;;;5067878;28;20674;-83
2022/06/25 04:00:02;;;;;;;1.63;1.53;;;14.70;99.90;;;;;;5068292;28;20714;-84
2022/06/25 04:02:29;;;;;;;1.57;1.47;;;14.60;99.90;;;;;;5067452;28;20682;-83
2022/06/25 04:04:56;;;;;;;1.33;1.23;;;14.60;99.90;;;;;;5068679;28;20852;-83
2022/06/25 04:07:23;;;;;;;1.73;1.63;;;14.60;99.90;;;;;;5067605;28;20656;-83
2022/06/25 04:09:50;;;;;;;1.60;1.50;;;14.50;99.90;;;;;;5067984;28;21377;-83
2022/06/25 04:12:16;;;;;;;1.97;1.57;;;14.70;99.90;;;;;;5068038;28;20682;-83
2022/06/25 04:14:45;;;;;;;2.30;1.37;;;14.70;99.90;;;;;;5068199;28;20790;-83
2022/06/25 04:17:13;;;;;;;1.60;1.50;;;14.70;99.90;;;;;;5067791;28;21027;-83
2022/06/25 04:19:41;;;;;;;1.63;1.53;;;14.80;99.90;;;;;;5068035;28;20653;-83
2022/06/25 04:22:08;;;;;;;1.60;1.50;;;14.70;99.90;;;;;;5067827;28;20644;-83
2022/06/25 04:24:35;;;;;;;1.20;1.20;;;14.80;99.90;;;;;;5068276;28;20697;-83
2022/06/25 04:27:02;;;;;;;1.07;1.07;;;14.70;99.90;;;;;;5067820;28;20651;-83
2022/06/25 04:29:28;;;;;;;1.90;1.53;;;14.80;99.90;;;;;;5068292;28;20632;-83
2022/06/25 04:32:16;;;;;;;;;;;;;;;;;;;;;
2022/06/25 04:34:43;;;;;;;0.90;0.90;;;15.00;99.90;;;;;;5067498;28;20610;-83
2022/06/25 04:37:12;;;;;;;0.97;0.93;;;15.10;99.90;;;;;;5059631;28;20605;-83
2022/06/25 04:39:40;;;;;;;1.07;1.07;;;;;;;;;;5067078;28;20625;-84
2022/06/25 04:42:12;;;;;;;1.70;1.10;;;15.20;99.90;;;;;;5067382;28;21056;-84
2022/06/25 04:44:42;;;;;;;1.13;1.13;;;15.30;99.90;;;;;;5067829;28;21050;-84
2022/06/25 04:47:10;;;;;;;0.80;0.80;;;15.30;99.90;;;;;;5067559;28;20649;-84
2022/06/25 04:49:37;;;;;;;0.90;0.80;;;15.50;99.90;;;;;;5067721;28;21534;-83
2022/06/25 04:52:21;;;;;;;0.90;0.87;;;15.50;99.90;;;;;;5069916;28;20668;-83
2022/06/25 04:54:51;;;;;;;1.50;1.40;;;15.60;99.90;;;;;;5071588;28;20617;-84
2022/06/25 04:57:18;;;;;;;1.07;1.07;;;15.50;99.90;;;;;;5071060;28;20694;-84
2022/06/25 04:59:47;;;;;;;1.30;1.30;;;15.60;99.90;;;;;;5071589;28;20710;-84
2022/06/25 05:02:17;;;;;;;1.00;1.00;;;15.50;99.90;;;;;;5071486;28;20744;-84
2022/06/25 05:04:44;;;;;;;0.73;0.70;;;15.50;99.90;;;;;;5071734;28;20609;-84
2022/06/25 05:07:13;;;;;;;1.20;1.10;;;15.50;99.90;;;;;;5071241;28;20640;-84
2022/06/25 05:09:46;;;;;;;0.70;0.70;;;15.60;99.90;;;;;;5071484;28;20602;-84
2022/06/25 05:13:11;;;;;;;1.07;0.97;;;15.60;99.90;;;;;;5064075;28;20706;-84
2022/06/25 05:15:05;;;;;;;1.60;1.50;;;15.60;99.90;;;;;;5071760;28;20628;-85
2022/06/25 05:17:35;;;;;;;0.70;0.70;;;15.70;99.90;;;;;;5071765;28;20663;-84
2022/06/25 05:20:22;;;;;;;1.30;1.20;;;15.90;99.90;;;;;;5072325;28;20660;-84
2022/06/25 05:22:52;;;;;;;1.43;1.33;;;16.10;99.90;;;;;;5072265;28;20636;-84
2022/06/25 05:25:25;;;;;;;1.30;1.20;;;16.10;99.90;;;;;;5072345;28;20682;-84
2022/06/25 05:27:52;;;;;;;0.60;0.60;;;16.10;99.90;;;;;;5071244;28;20702;-84
2022/06/25 05:30:18;;;;;;;1.23;1.13;;;16.10;99.90;;;;;;5071705;28;20612;-84
2022/06/25 05:32:47;;;;;;;1.57;0.87;;;16.10;99.90;;;;;;5070903;28;20624;-85
2022/06/25 05:35:13;;;;;;;1.33;0.97;;;16.40;99.90;;;;;;5071130;28;20664;-84
2022/06/25 05:37:40;;;;;;;0.90;0.90;;;16.40;99.90;;;;;;5070764;28;20667;-85
2022/06/25 05:40:09;;;;;;;0.77;0.77;;;16.50;99.90;;;;;;5070933;28;20712;-84
2022/06/25 05:42:36;;;;;;;1.20;1.00;;;16.50;99.90;;;;;;5070890;28;20629;-85
2022/06/25 05:45:04;;;;;;;1.33;1.23;;;16.60;99.90;;;;;;5070941;28;20637;-85
2022/06/25 05:47:30;;;;;;;0.87;0.80;;;16.80;99.90;;;;;;5070567;28;20645;-85
2022/06/25 05:49:59;;;;;;;1.43;1.33;;;16.90;99.90;;;;;;5071330;28;20605;-84
2022/06/25 05:52:26;;;;;;;0.57;0.57;;;17.00;99.90;;;;;;5071509;28;21001;-85
2022/06/25 05:54:53;;;;;;;1.50;1.20;;;17.00;99.90;;;;;;5071306;28;20653;-84
2022/06/25 05:57:22;;;;;;;1.07;0.97;;;16.90;99.90;;;;;;5070784;28;20624;-84
2022/06/25 05:59:52;;;;;;;0.90;0.90;;;17.00;99.90;;;;;;5070702;28;21329;-85
2022/06/25 06:02:19;;;;;;;0.97;0.97;;;17.00;99.90;;;;;;5070317;28;20677;-84
2022/06/25 06:04:46;;;;;;;1.07;1.00;;;17.00;99.90;;;;;;5070784;28;20977;-84
2022/06/25 06:07:14;;;;;;;0.93;0.93;;;17.10;99.90;;;;;;5070713;28;20730;-85
2022/06/25 06:09:41;;;;;;;2.17;0.87;;;17.30;99.90;;;;;;5070499;28;20602;-86
2022/06/25 06:12:08;;;;;;;1.20;0.90;;;17.30;99.90;;;;;;5070673;28;20625;-84
2022/06/25 06:14:35;;;;;;;1.00;0.90;;;17.10;99.90;;;;;;5070127;28;21158;-85
2022/06/25 06:17:02;;;;;;;0.83;0.83;;;17.40;99.90;;;;;;5070985;28;20670;-85
2022/06/25 06:19:29;;;;;;;1.00;0.90;;;17.40;99.90;;;;;;5070951;28;20622;-84
2022/06/25 06:21:56;;;;;;;0.80;0.77;;;17.40;99.90;;;;;;5070418;28;20663;-85
2022/06/25 06:24:24;;;;;;;0.80;0.80;;;17.70;99.90;;;;;;5070311;28;20624;-85
2022/06/25 06:26:51;;;;;;;1.40;1.20;;;17.70;99.90;;;;;;5069754;28;20613;-85
2022/06/25 06:29:18;;;;;;;1.13;0.90;;;17.70;99.90;;;;;;5070507;28;20687;-85
2022/06/25 06:31:45;;;;;;;1.27;1.03;;;17.70;99.90;;;;;;5069948;28;20648;-87
2022/06/25 06:34:12;;;;;;;0.80;0.80;;;17.90;99.90;;;;;;5070544;28;20597;-87
2022/06/25 06:36:39;;;;;;;0.90;0.90;;;18.10;99.90;;;;;;5069899;28;20645;-89
2022/06/25 06:39:06;;;;;;;0.93;0.93;;;18.00;99.90;;;;;;5069669;28;20844;-87
2022/06/25 06:41:35;;;;;;;0.80;0.80;;;18.10;99.90;;;;;;5068943;28;20625;-86
2022/06/25 06:44:02;;;;;;;0.60;0.60;;;17.90;99.90;;;;;;5068605;28;21151;-87
2022/06/25 06:46:30;;;;;;;0.93;0.80;;;18.10;99.90;;;;;;5079795;28;20629;-88
2022/06/25 06:48:57;;;;;;;0.90;0.90;;;;;;;;;;5073448;28;20653;-86
2022/06/25 06:51:24;;;;;;;0.80;0.73;;;18.20;99.90;;;;;;5080146;28;20686;-88
2022/06/25 06:53:51;;;;;;;0.80;0.80;;;18.30;99.90;;;;;;5070694;28;20617;-84
2022/06/25 06:56:18;;;;;;;0.70;0.70;;;18.40;99.90;;;;;;5072125;28;20618;-85
2022/06/25 06:58:47;;;;;;;1.10;1.00;;;18.60;99.90;;;;;;5068284;28;20653;-85
2022/06/25 07:01:17;;;;;;;0.63;0.63;;;18.60;99.90;;;;;;5068268;28;20625;-87
2022/06/25 07:03:44;;;;;;;0.50;0.50;;;18.50;99.90;;;;;;5072398;28;20617;-87
2022/06/25 07:06:11;;;;;;;0.70;0.70;;;18.30;99.90;;;;;;5073037;28;20671;-86
2022/06/25 07:08:38;;;;;;;0.77;0.77;;;18.40;99.90;;;;;;5072449;28;21342;-86
2022/06/25 07:11:28;;;;;;;0.57;0.57;;;18.70;99.90;;;;;;5071168;28;20772;-86
2022/06/25 07:13:55;;;;;;;1.23;0.90;;;19.00;99.90;;;;;;5068377;28;20625;-87
2022/06/25 07:16:22;;;;;;;0.80;0.80;;;19.20;99.90;;;;;;5071444;28;21012;-86
2022/06/25 07:18:50;;;;;;;0.90;0.90;;;19.10;99.90;;;;;;5069390;28;20674;-86
2022/06/25 07:21:18;;;;;;;0.90;0.90;;;19.30;99.90;;;;;;5078370;28;20602;-87
2022/06/25 07:23:47;;;;;;;1.17;1.07;;;19.40;99.90;;;;;;5073921;28;21042;-87
2022/06/25 07:26:14;;;;;;;0.83;0.83;;;19.50;99.90;;;;;;5073740;28;20673;-86
2022/06/25 07:28:41;;;;;;;1.00;1.00;;;19.70;99.90;;;;;;5075112;28;20733;-85
2022/06/25 07:31:10;;;;;;;1.30;1.20;;;19.70;99.90;;;;;;5074445;28;20621;-89
2022/06/25 07:33:37;;;;;;;1.20;1.10;;;20.90;99.90;;;;;;5071434;28;20617;-88
2022/06/25 07:36:04;;;;;;;1.13;1.03;;;20.00;99.90;;;;;;5077614;28;20620;-86
2022/06/25 07:38:40;;;;;;;1.57;1.03;;;20.00;99.70;;;;;;5074351;28;20625;-86
2022/06/25 07:41:10;;;;;;;1.00;1.00;;;20.00;99.90;;;;;;5067752;28;20653;-90
2022/06/25 07:43:41;;;;;;;5.10;1.33;;;20.80;99.90;;;;;;5080278;28;20728;-89
2022/06/25 07:46:17;;;;;;;1.23;1.13;;;20.20;99.90;;;;;;5058747;28;20733;-90
2022/06/25 07:48:52;;;;;;;0.73;0.73;;;20.10;99.90;;;;;;5068445;28;20762;-87
2022/06/25 07:54:19;;;;;;;0.87;0.87;;;20.60;99.80;;;;;;5057837;28;20719;-89
2022/06/25 07:57:19;;;;;;;1.60;1.50;;;20.80;99.00;;;;;;5085123;28;20681;-89
2022/06/25 07:59:53;;;;;;;1.07;0.97;;;20.50;99.90;;;;;;5088807;28;20723;-88
2022/06/25 08:02:24;;;;;;;0.77;0.77;;;20.40;99.60;;;;;;5075383;28;20716;-87
2022/06/25 08:04:52;;;;;;;1.43;1.33;;;20.80;99.10;;;;;;5067921;28;21045;-89
2022/06/25 08:07:22;;;;;;;1.53;1.30;;;21.20;98.00;;;;;;5067869;28;20679;-91
2022/06/25 08:09:49;;;;;;;0.97;0.93;;;21.10;98.70;;;;;;5068160;28;20617;-87
2022/06/25 08:12:17;;;;;;;1.27;1.17;;;21.30;97.70;;;;;;5068144;28;20617;-90
2022/06/25 08:14:51;;;;;;;1.43;1.33;;;21.60;96.30;;;;;;5068130;28;20724;-90
2022/06/25 08:17:21;;;;;;;1.20;1.20;;;21.80;96.50;;;;;;5070279;28;21577;-88
2022/06/25 08:19:52;;;;;;;1.30;1.20;;;21.60;96.20;;;;;;5080868;28;20969;-90
2022/06/25 08:22:23;;;;;;;1.30;1.20;;;21.90;96.10;;;;;;5078272;28;20641;-90
2022/06/25 08:24:58;;;;;;;1.10;1.10;;;21.80;95.20;;;;;;5082909;28;20628;-90
2022/06/25 08:27:28;;;;;;;1.23;1.00;;;21.80;94.30;;;;;;5071994;28;21030;-89
2022/06/25 08:29:56;;;;;;;1.00;1.00;;;;;;;;;;5072076;28;20621;-89
2022/06/25 08:32:25;;;;;;;0.97;0.93;;;22.90;97.40;;;;;;5072535;28;20621;-89
2022/06/25 08:35:03;;;;;;;0.73;0.73;;;21.60;96.30;;;;;;5072371;28;20660;-90
2022/06/25 08:37:30;;;;;;;1.77;1.67;;;21.90;95.90;;;;;;5072424;28;20620;-89
2022/06/25 08:39:57;;;;;;;0.90;0.90;;;22.10;95.30;;;;;;5072433;28;20617;-88
2022/06/25 08:42:27;;;;;;;1.53;1.43;;;22.20;95.50;;;;;;5072986;28;20732;-89
2022/06/25 08:44:56;;;;;;;0.70;0.70;;;22.40;95.00;;;;;;5073273;28;20621;-91
2022/06/25 08:47:29;;;;;;;0.70;0.70;;;22.50;94.40;;;;;;5072028;28;20628;-90
2022/06/25 08:49:59;;;;;;;0.90;0.90;;;22.50;93.30;;;;;;5070737;28;20632;-87
2022/06/25 08:52:28;;;;;;;1.00;0.90;;;22.70;93.50;;;;;;5071564;28;20624;-89
2022/06/25 08:54:56;;;;;;;0.70;0.67;;;22.80;93.30;;;;;;5070762;28;20614;-88
2022/06/25 08:57:23;;;;;;;0.90;0.90;;;22.90;91.60;;;;;;5051737;28;20656;-88
2022/06/25 08:59:50;;;;;;;1.20;1.00;;;23.10;91.90;;;;;;5051361;28;20679;-89
2022/06/25 09:02:19;;;;;;;0.90;0.90;;;23.10;92.20;;;;;;5051388;28;20621;-87
2022/06/25 09:04:46;;;;;;;1.00;1.00;;;23.20;93.40;;;;;;5051402;28;20606;-88
2022/06/25 09:07:25;;;;;;;0.67;0.67;;;23.30;91.10;;;;;;5051790;28;20602;-89
2022/06/25 09:09:52;;;;;;;0.80;0.80;;;23.40;90.50;;;;;;5064595;28;20608;-89
2022/06/25 09:12:19;;;;;;;0.80;0.80;;;23.50;90.70;;;;;;5071931;28;21349;-91
2022/06/25 09:14:50;;;;;;;1.13;1.03;;;23.60;89.60;;;;;;5072027;28;20613;-89
2022/06/25 09:17:19;;;;;;;0.90;0.90;;;23.70;88.10;;;;;;5070714;28;21202;-90
2022/06/25 09:19:49;;;;;;;0.90;0.90;;;23.70;88.20;;;;;;5068558;28;20699;-90
2022/06/25 09:22:19;;;;;;;0.97;0.97;;;23.80;87.80;;;;;;5078825;28;20624;-89
2022/06/25 09:24:49;;;;;;;1.17;1.07;;;23.70;89.80;;;;;;5065192;28;20633;-89
2022/06/25 09:27:20;;;;;;;0.90;0.90;;;23.50;85.30;;;;;;5071330;28;20710;-89
2022/06/25 09:29:49;;;;;;;1.10;1.00;;;23.70;87.80;;;;;;5070515;28;20641;-90
2022/06/25 09:32:18;;;;;;;0.90;0.90;;;23.70;88.10;;;;;;5070375;28;21053;-90
2022/06/25 09:34:45;;;;;;;1.20;1.10;;;23.70;89.20;;;;;;5070969;28;20689;-88
2022/06/25 09:37:19;;;;;;;1.30;1.20;;;23.70;89.40;;;;;;5071077;28;20629;-89
2022/06/25 09:39:49;;;;;;;1.13;1.10;;;23.80;86.40;;;;;;5070861;28;21169;-88
2022/06/25 09:42:30;;;;;;;0.90;0.90;;;23.80;90.50;;;;;;5071216;28;20712;-87
2022/06/25 09:45:06;;;;;;;1.87;1.67;;;23.70;89.00;;;;;;5070621;28;21172;-88
2022/06/25 09:47:38;;;;;;;1.70;0.97;;;23.70;88.00;;;;;;5071981;28;20666;-88
2022/06/25 09:50:09;;;;;;;1.00;1.00;;;23.40;88.90;;;;;;5069534;28;20667;-87
2022/06/25 09:52:38;;;;;;;0.83;0.83;;;23.30;89.40;;;;;;5069504;28;20634;-89
2022/06/25 09:55:06;;;;;;;1.40;1.30;;;23.70;88.10;;;;;;5070087;28;20682;-88
2022/06/25 09:57:33;;;;;;;0.90;0.90;;;24.00;86.80;;;;;;5069879;28;20721;-87
2022/06/25 10:00:02;;;;;;;0.70;0.70;;;24.20;85.70;;;;;;5068571;28;20617;-87
2022/06/25 10:02:29;;;;;;;1.10;1.10;;;24.20;85.30;;;;;;5070805;28;20683;-88
2022/06/25 10:05:01;;;;;;;1.10;1.10;;;24.30;83.20;;;;;;5070261;28;20720;-87
2022/06/25 10:10:20;;;;;;;1.33;0.87;;;24.40;82.20;;;;;;5059561;28;20621;-86
2022/06/25 10:12:47;;;;;;;1.17;1.17;;;24.60;86.20;;;;;;5070848;28;20719;-87
2022/06/25 10:15:17;;;;;;;1.20;1.07;;;24.70;84.40;;;;;;5073039;28;20624;-88
2022/06/25 10:17:45;;;;;;;1.27;1.17;;;24.70;81.10;;;;;;5070665;28;21248;-87
2022/06/25 10:20:14;;;;;;;1.20;1.10;;;24.60;80.20;;;;;;5062743;28;20618;-88
2022/06/25 10:22:42;;;;;;;0.93;0.93;;;24.70;86.00;;;;;;5057431;28;21265;-87
2022/06/25 10:25:11;;;;;;;1.50;1.40;;;24.90;82.20;;;;;;5050376;28;20654;-88
2022/06/25 10:27:45;;;;;;;1.03;1.00;;;24.90;79.50;;;;;;5060869;28;20722;-87
2022/06/25 10:30:14;;;;;;;1.10;1.10;;;24.90;80.20;;;;;;5054909;28;20714;-87
2022/06/25 10:32:44;;;;;;;1.10;1.00;;;25.20;80.50;;;;;;5069182;28;20651;-87
2022/06/25 10:35:28;;;;;;;1.40;1.13;;;25.30;76.40;;;;;;5069832;28;20626;-85
2022/06/25 10:38:02;;;;;;;0.70;0.70;;;25.20;78.10;;;;;;5069087;28;20683;-85
2022/06/25 10:40:31;;;;;;;0.90;0.90;;;25.30;76.00;;;;;;5068092;28;20617;-85
2022/06/25 10:43:02;;;;;;;0.80;0.80;;;25.30;76.20;;;;;;5058784;28;20661;-86
2022/06/25 10:45:49;;;;;;;1.60;1.00;;;25.40;75.40;;;;;;5069116;28;21184;-86
2022/06/25 10:48:18;;;;;;;1.93;1.20;;;25.50;73.30;;;;;;5061611;28;20732;-86
2022/06/25 10:50:49;;;;;;;1.00;1.00;;;25.50;73.90;;;;;;5067274;28;20629;-86
2022/06/25 10:53:18;;;;;;;1.20;0.83;;;25.60;74.40;;;;;;5068546;28;21309;-85
2022/06/25 10:56:15;;;;;;;0.90;0.90;;;25.90;74.00;;;;;;5077249;28;20719;-86
2022/06/25 10:58:46;;;;;;;1.20;1.20;;;25.90;72.80;;;;;;5087360;28;20633;-84
2022/06/25 11:01:22;;;;;;;1.20;1.10;;;26.10;71.20;;;;;;5071328;28;20623;-86
2022/06/25 11:03:55;;;;;;;0.90;0.90;;;26.20;73.60;;;;;;5068938;28;21194;-85
2022/06/25 11:06:24;;;;;;;1.60;1.50;;;26.40;72.40;;;;;;5068205;28;20592;-85
2022/06/25 11:08:52;;;;;;;1.30;1.20;;;26.40;74.00;;;;;;5068496;28;20756;-86
2022/06/25 11:11:29;;;;;;;0.90;0.90;;;26.40;70.20;;;;;;5051594;28;20686;-86
2022/06/25 11:13:58;;;;;;;0.90;0.90;;;26.60;74.10;;;;;;5049136;28;20677;-85
2022/06/25 11:16:26;;;;;;;0.83;0.83;;;27.00;70.10;;;;;;5048285;28;20625;-86
2022/06/25 11:18:55;;;;;;;0.93;0.93;;;27.20;67.20;;;;;;5062384;28;20714;-84
2022/06/25 11:21:26;;;;;;;1.17;1.07;;;27.40;66.30;;;;;;5065541;28;20632;-86
2022/06/25 11:23:54;;;;;;;1.20;0.80;;;27.40;65.30;;;;;;5068480;28;21217;-85
2022/06/25 11:29:07;;;;;;;1.20;1.10;;;27.70;64.00;;;;;;5068001;28;20645;-86
2022/06/25 11:31:35;;;;;;;0.90;0.90;;;27.90;63.50;;;;;;5050007;28;20626;-86
2022/06/25 11:34:03;;;;;;;0.90;0.90;;;28.10;64.70;;;;;;5048670;28;20626;-87
2022/06/25 11:36:34;;;;;;;1.00;1.00;;;28.30;65.40;;;;;;5048279;28;20621;-85
2022/06/25 11:39:01;;;;;;;0.87;0.87;;;27.90;62.00;;;;;;5052343;28;20605;-86
2022/06/25 11:41:30;;;;;;;1.30;1.20;;;27.80;64.40;;;;;;5067433;28;21179;-86
2022/06/25 11:44:04;;;;;;;1.50;1.40;;;27.80;62.10;;;;;;5068456;28;20718;-85
2022/06/25 11:46:34;;;;;;;1.20;1.13;;;27.70;65.90;;;;;;5068175;28;20717;-85
2022/06/25 11:49:04;;;;;;;1.30;1.20;;;28.00;66.20;;;;;;5068002;28;20677;-86
2022/06/25 11:51:31;;;;;;;0.73;0.73;;;28.70;65.10;;;;;;5067131;28;20721;-86
2022/06/25 11:54:03;;;;;;;1.47;1.33;;;29.40;61.70;;;;;;5068175;28;20624;-84
2022/06/25 11:56:30;;;;;;;1.50;1.40;;;29.90;60.10;;;;;;5068145;28;20617;-84
2022/06/25 11:58:57;;;;;;;1.00;1.00;;;30.60;58.70;;;;;;5068456;28;20620;-84
2022/06/25 12:01:29;;;;;;;0.87;0.80;;;31.00;57.20;;;;;;5051553;28;20622;-83
2022/06/25 12:03:57;;;;;;;1.00;0.90;;;31.60;56.20;;;;;;5048660;28;20618;-84
2022/06/25 12:06:25;;;;;;;0.83;0.83;;;31.90;55.80;;;;;;5047575;28;20614;-84
2022/06/25 12:08:52;;;;;;;0.83;0.83;;;33.10;54.50;;;;;;5047859;28;20653;-84
2022/06/25 12:11:20;;;;;;;1.10;1.10;;;33.40;50.60;;;;;;5063183;28;21531;-84
2022/06/25 12:13:47;;;;;;;0.70;0.70;;;33.80;50.60;;;;;;5068157;28;20632;-83
2022/06/25 12:16:14;;;;;;;2.60;0.80;;;34.60;49.50;;;;;;5067562;28;20635;-85
2022/06/25 12:18:43;;;;;;;1.00;0.90;;;35.00;47.10;;;;;;5068158;28;20723;-85
2022/06/25 12:21:18;;;;;;;1.00;1.00;;;35.10;47.30;;;;;;5066856;28;20281;-84
2022/06/25 12:23:52;;;;;;;0.80;0.80;;;35.60;45.40;;;;;;5068600;28;20225;-84
2022/06/25 12:26:27;;;;;;;0.70;0.70;;;35.70;44.80;;;;;;5067784;28;20880;-86
2022/06/25 12:29:05;;;;;;;1.05;1.05;;;36.60;42.70;;;;;;5067754;28;20705;-84
2022/06/25 12:31:31;;;;;;;0.82;0.82;;;36.10;43.20;;;;;;5050761;28;20285;-84
2022/06/25 12:34:00;;;;;;;0.50;0.50;;;36.20;43.70;;;;;;5048155;28;20264;-84
2022/06/25 12:36:29;;;;;;;0.90;0.90;;;36.60;42.40;;;;;;5047796;28;20218;-84
2022/06/25 12:38:56;;;;;;;0.70;0.70;;;36.80;42.00;;;;;;5051098;28;20283;-86
2022/06/25 12:41:46;;;;;;;0.90;0.90;;;37.40;42.00;;;;;;5067040;28;20207;-83
2022/06/25 12:44:13;;;;;;;1.15;1.15;;;37.50;41.30;;;;;;5067378;28;20577;-84
2022/06/25 12:46:41;;;;;;;0.73;0.73;;;37.00;41.20;;;;;;5067403;28;20267;-84
2022/06/25 12:49:11;;;;;;;0.98;0.98;;;37.30;40.60;;;;;;5067712;28;20305;-84
2022/06/25 12:51:40;;;;;;;0.70;0.70;;;37.40;40.30;;;;;;5066904;28;20298;-85
2022/06/25 12:54:07;;;;;;;0.60;0.60;;;37.00;40.60;;;;;;5067765;28;20221;-84
2022/06/25 12:56:34;;;;;;;0.90;0.90;;;37.20;39.70;;;;;;5066966;28;20740;-85
2022/06/25 12:59:02;;;;;;;0.75;0.75;;;37.60;41.60;;;;;;5067892;28;20289;-86
2022/06/25 13:01:30;;;;;;;0.88;0.88;;;37.40;40.70;;;;;;5051648;28;20211;-85
2022/06/25 13:03:58;;;;;;;1.60;1.50;;;37.60;39.60;;;;;;5048000;28;20265;-85
2022/06/25 13:06:24;;;;;;;0.93;0.93;;;38.10;39.60;;;;;;5047729;28;20983;-85
2022/06/25 13:08:53;;;;;;;0.80;0.80;;;38.20;38.50;;;;;;5048120;28;20203;-85
2022/06/25 13:11:20;;;;;;;0.90;0.90;;;37.20;38.40;;;;;;5061281;28;20698;-86
2022/06/25 13:13:48;;;;;;;1.00;1.00;;;37.40;41.80;;;;;;5071233;28;20289;-86